createdAt,value
2019-03-12T00:01:47.798Z,1.96
2019-03-12T00:04:19.509Z,1.95
2019-03-12T00:06:51.112Z,2.02
2019-03-12T00:09:22.729Z,1.95
2019-03-12T00:11:54.407Z,2.00
2019-03-12T00:14:26.098Z,1.99
2019-03-12T00:16:57.787Z,1.99
2019-03-12T00:19:29.497Z,1.94
2019-03-12T00:22:01.095Z,1.84
2019-03-12T00:24:32.720Z,1.87
2019-03-12T00:27:04.408Z,1.90
2019-03-12T00:29:36.112Z,1.92
2019-03-12T00:32:07.711Z,2.00
2019-03-12T00:34:39.508Z,2.06
2019-03-12T00:37:11.175Z,2.17
2019-03-12T00:39:42.789Z,2.16
2019-03-12T00:42:14.373Z,2.21
2019-03-12T00:44:46.186Z,2.21
2019-03-12T00:47:18.098Z,2.24
2019-03-12T00:49:49.734Z,2.33
2019-03-12T00:52:21.344Z,2.43
2019-03-12T00:54:52.966Z,2.46
2019-03-12T00:57:24.633Z,2.45
2019-03-12T00:59:56.642Z,2.49
2019-03-12T01:02:28.288Z,2.42
2019-03-12T01:04:59.959Z,2.49
2019-03-12T01:07:31.565Z,2.47
2019-03-12T01:10:04.262Z,2.52
2019-03-12T01:12:35.925Z,2.53
2019-03-12T01:15:07.794Z,2.56
2019-03-12T01:17:40.464Z,2.57
2019-03-12T01:20:12.582Z,2.53
2019-03-12T01:22:44.184Z,2.58
2019-03-12T01:25:15.807Z,2.54
2019-03-12T01:27:47.651Z,2.49
2019-03-12T01:30:19.333Z,2.56
2019-03-12T01:32:51.248Z,2.57
2019-03-12T01:35:22.847Z,2.58
2019-03-12T01:37:54.494Z,2.56
2019-03-12T01:40:26.198Z,2.56
2019-03-12T01:42:57.787Z,2.49
2019-03-12T01:45:29.373Z,2.46
2019-03-12T01:48:00.995Z,2.50
2019-03-12T01:50:32.617Z,2.44
2019-03-12T01:53:04.227Z,2.46
2019-03-12T01:55:35.907Z,2.48
2019-03-12T01:58:07.568Z,2.39
2019-03-12T02:00:39.345Z,2.44
2019-03-12T02:03:12.005Z,2.36
2019-03-12T02:05:43.684Z,2.45
2019-03-12T02:08:15.309Z,2.43
2019-03-12T02:10:47.170Z,2.34
2019-03-12T02:13:19.020Z,2.30
2019-03-12T02:15:51.068Z,2.32
2019-03-12T02:18:22.932Z,2.24
2019-03-12T02:20:54.615Z,2.23
2019-03-12T02:23:28.848Z,2.25
2019-03-12T02:25:59.638Z,2.28
2019-03-12T02:28:31.504Z,2.27
2019-03-12T02:31:03.252Z,2.23
2019-03-12T02:33:34.950Z,2.19
2019-03-12T02:36:06.619Z,2.11
2019-03-12T02:38:38.286Z,2.04
2019-03-12T02:41:09.893Z,2.05
2019-03-12T02:43:41.494Z,2.14
2019-03-12T02:46:14.082Z,2.19
2019-03-12T02:48:45.754Z,2.22
2019-03-12T02:51:17.410Z,2.25
2019-03-12T02:53:49.022Z,2.17
2019-03-12T02:56:20.813Z,2.23
2019-03-12T02:58:52.415Z,2.04
2019-03-12T03:01:24.096Z,1.99
2019-03-12T03:03:55.778Z,1.93
2019-03-12T03:06:46.373Z,1.87
2019-03-12T03:09:18.180Z,1.85
2019-03-12T03:11:50.981Z,1.78
2019-03-12T03:14:42.302Z,1.73
2019-03-12T03:17:16.229Z,1.76
2019-03-12T03:19:48.131Z,1.62
2019-03-12T03:22:19.735Z,1.63
2019-03-12T03:24:51.324Z,1.58
2019-03-12T03:27:22.936Z,1.56
2019-03-12T03:29:54.652Z,1.59
2019-03-12T03:32:26.288Z,1.65
2019-03-12T03:34:57.910Z,1.53
2019-03-12T03:37:29.667Z,1.53
2019-03-12T03:40:01.327Z,1.50
2019-03-12T03:42:33.222Z,1.44
2019-03-12T03:45:05.048Z,1.33
2019-03-12T03:47:36.690Z,1.32
2019-03-12T03:50:08.713Z,1.32
2019-03-12T03:52:40.431Z,1.33
2019-03-12T03:55:13.829Z,1.36
2019-03-12T03:57:45.569Z,1.31
2019-03-12T04:00:19.074Z,1.34
2019-03-12T04:02:50.977Z,1.26
2019-03-12T04:05:22.698Z,1.29
2019-03-12T04:07:54.536Z,1.31
2019-03-12T04:10:26.192Z,1.37
2019-03-12T04:12:57.791Z,1.42
2019-03-12T04:15:29.369Z,1.36
2019-03-12T04:18:01.053Z,1.33
2019-03-12T04:20:32.735Z,1.26
2019-03-12T04:23:04.445Z,1.31
2019-03-12T04:25:36.110Z,1.34
2019-03-12T04:28:07.770Z,1.28
2019-03-12T04:30:39.363Z,1.31
2019-03-12T04:33:41.423Z,1.37
2019-03-12T04:36:13.033Z,1.34
2019-03-12T04:38:44.672Z,1.30
2019-03-12T04:41:16.341Z,1.28
2019-03-12T04:43:48.118Z,1.30
2019-03-12T04:46:19.765Z,1.27
2019-03-12T04:48:51.498Z,1.33
2019-03-12T04:51:23.088Z,1.32
2019-03-12T04:53:54.705Z,1.32
2019-03-12T04:56:26.389Z,1.34
2019-03-12T04:58:57.976Z,1.29
2019-03-12T05:01:29.575Z,1.18
2019-03-12T05:04:01.261Z,1.23
2019-03-12T05:06:32.922Z,1.08
2019-03-12T05:09:05.764Z,1.05
2019-03-12T05:11:38.167Z,1.03
2019-03-12T05:14:42.022Z,0.98
2019-03-12T05:17:30.873Z,1.00
2019-03-12T05:20:02.546Z,0.99
2019-03-12T05:22:34.219Z,0.95
2019-03-12T05:25:06.261Z,0.86
2019-03-12T05:27:37.936Z,0.92
2019-03-12T05:30:12.153Z,0.94
2019-03-12T05:32:43.833Z,0.89
2019-03-12T05:35:15.441Z,0.85
2019-03-12T05:37:47.205Z,0.84
2019-03-12T05:40:19.048Z,0.78
2019-03-12T05:42:50.837Z,0.71
2019-03-12T05:45:22.427Z,0.66
2019-03-12T05:47:54.020Z,0.70
2019-03-12T05:50:25.762Z,0.67
2019-03-12T05:53:10.301Z,0.68
2019-03-12T05:55:41.885Z,0.68
2019-03-12T05:58:13.469Z,0.69
2019-03-12T06:00:45.073Z,0.74
2019-03-12T06:03:16.917Z,0.77
2019-03-12T06:05:48.512Z,0.73
2019-03-12T06:08:20.170Z,0.66
2019-03-12T06:10:52.027Z,0.73
2019-03-12T06:13:23.920Z,0.85
2019-03-12T06:15:55.749Z,0.85
2019-03-12T06:18:27.420Z,0.88
2019-03-12T06:20:59.050Z,0.95
2019-03-12T06:23:30.651Z,0.98
2019-03-12T06:26:02.283Z,0.95
2019-03-12T06:28:34.147Z,0.97
2019-03-12T06:31:23.038Z,0.96
2019-03-12T06:33:58.813Z,0.98
2019-03-12T06:36:35.075Z,1.01
2019-03-12T06:39:16.029Z,1.00
2019-03-12T06:42:12.584Z,1.07
2019-03-12T06:45:03.310Z,1.05
2019-03-12T06:47:41.759Z,1.02
2019-03-12T06:50:32.267Z,1.07
2019-03-12T06:53:22.789Z,1.03
2019-03-12T06:56:16.025Z,1.09
2019-03-12T06:59:04.921Z,1.07
2019-03-12T07:02:13.355Z,1.19
2019-03-12T07:05:03.966Z,1.14
2019-03-12T07:07:57.363Z,1.09
2019-03-12T07:10:37.762Z,1.17
2019-03-12T07:13:24.920Z,1.18
2019-03-12T07:16:09.736Z,1.32
2019-03-12T07:19:03.031Z,1.26
2019-03-12T07:21:48.499Z,1.29
2019-03-12T07:24:44.833Z,1.25
2019-03-12T07:27:26.721Z,1.27
2019-03-12T07:30:17.241Z,1.34
2019-03-12T07:33:16.874Z,1.49
2019-03-12T07:36:16.951Z,1.55
2019-03-12T07:39:10.631Z,1.51
2019-03-12T07:41:59.069Z,1.55
2019-03-12T07:44:51.276Z,1.66
2019-03-12T07:47:35.786Z,1.67
2019-03-12T07:50:21.507Z,1.66
2019-03-12T07:53:07.810Z,1.58
2019-03-12T07:55:58.426Z,1.67
2019-03-12T07:58:55.198Z,1.82
2019-03-12T08:01:45.927Z,1.85
2019-03-12T08:04:49.564Z,1.99
2019-03-12T08:07:28.292Z,2.08
2019-03-12T08:10:25.151Z,2.23
2019-03-12T08:13:17.431Z,2.21
2019-03-12T08:16:14.716Z,2.31
2019-03-12T08:19:05.678Z,2.27
2019-03-12T08:21:58.117Z,2.23
2019-03-12T08:24:48.874Z,2.11
2019-03-12T08:27:43.259Z,2.18
2019-03-12T08:30:32.433Z,2.11
2019-03-12T08:33:50.406Z,2.11
2019-03-12T08:36:40.052Z,2.15
2019-03-12T08:39:30.717Z,2.17
2019-03-12T08:42:18.480Z,2.32
2019-03-12T08:45:15.721Z,2.37
2019-03-12T08:48:04.047Z,2.47
2019-03-12T08:50:54.254Z,2.65
2019-03-12T08:53:44.858Z,2.81
2019-03-12T08:56:35.460Z,2.80
2019-03-12T08:59:26.652Z,2.84
2019-03-12T09:02:23.508Z,2.98
2019-03-12T09:05:29.269Z,3.13
2019-03-12T09:08:18.626Z,3.24
2019-03-12T09:11:09.287Z,3.34
2019-03-12T09:14:00.092Z,3.38
2019-03-12T09:16:56.774Z,3.38
2019-03-12T09:19:35.983Z,3.41
2019-03-12T09:22:32.635Z,3.52
2019-03-12T09:25:23.771Z,3.44
2019-03-12T09:28:15.778Z,3.52
2019-03-12T09:31:05.213Z,3.67
2019-03-12T09:33:51.705Z,3.68
2019-03-12T09:36:41.141Z,3.79
2019-03-12T09:39:25.946Z,3.82
2019-03-12T09:42:22.603Z,3.79
2019-03-12T09:45:19.489Z,3.87
2019-03-12T09:48:00.864Z,3.98
2019-03-12T09:50:54.306Z,4.12
2019-03-12T09:53:45.184Z,4.22
2019-03-12T09:56:34.742Z,4.21
2019-03-12T09:59:24.230Z,4.29
2019-03-12T10:02:09.010Z,4.50
2019-03-12T10:04:54.303Z,4.45
2019-03-12T10:07:40.150Z,4.63
2019-03-12T10:10:31.204Z,4.74
2019-03-12T10:13:14.741Z,4.97
2019-03-12T10:16:05.641Z,5.07
2019-03-12T10:18:56.250Z,5.18
2019-03-12T10:21:44.143Z,5.25
2019-03-12T10:24:36.259Z,5.21
2019-03-12T10:27:32.929Z,5.12
2019-03-12T10:30:20.398Z,4.98
2019-03-12T10:33:22.847Z,4.95
2019-03-12T10:36:02.735Z,4.96
2019-03-12T10:39:19.270Z,4.87
2019-03-12T10:42:02.968Z,4.94
2019-03-12T10:45:02.726Z,4.83
2019-03-12T10:47:35.541Z,4.87
2019-03-12T10:50:07.412Z,5.01
2019-03-12T10:52:39.507Z,4.94
2019-03-12T10:55:13.423Z,5.03
2019-03-12T10:57:46.233Z,5.05
2019-03-12T11:00:19.342Z,5.27
2019-03-12T11:02:51.284Z,5.34
2019-03-12T11:05:22.984Z,5.35
2019-03-12T11:07:54.654Z,5.45
2019-03-12T11:10:26.329Z,5.85
2019-03-12T11:12:58.001Z,5.89
2019-03-12T11:15:29.789Z,6.08
2019-03-12T11:18:01.449Z,6.04
2019-03-12T11:20:33.115Z,6.11
2019-03-12T11:23:04.786Z,6.12
2019-03-12T11:25:36.467Z,6.09
2019-03-12T11:28:08.137Z,5.95
2019-03-12T11:30:39.831Z,5.93
2019-03-12T11:33:11.558Z,5.77
2019-03-12T11:35:43.164Z,5.53
2019-03-12T11:38:14.821Z,5.46
2019-03-12T11:40:46.542Z,5.48
2019-03-12T11:43:18.270Z,5.56
2019-03-12T11:45:50.213Z,5.90
2019-03-12T11:48:22.264Z,5.98
2019-03-12T11:50:54.059Z,6.47
2019-03-12T11:53:26.819Z,6.44
2019-03-12T11:55:58.577Z,6.42
2019-03-12T11:58:30.267Z,6.62
2019-03-12T12:01:04.379Z,6.75
2019-03-12T12:03:36.243Z,6.84
2019-03-12T12:06:07.846Z,7.19
2019-03-12T12:08:39.549Z,7.11
2019-03-12T12:11:11.201Z,7.28
2019-03-12T12:13:42.987Z,7.02
2019-03-12T12:16:14.719Z,6.91
2019-03-12T12:18:46.426Z,6.82
2019-03-12T12:21:18.253Z,6.84
2019-03-12T12:23:50.201Z,6.75
2019-03-12T12:26:22.099Z,6.68
2019-03-12T12:28:53.972Z,6.62
2019-03-12T12:31:25.580Z,6.86
2019-03-12T12:33:57.260Z,6.77
2019-03-12T12:36:28.836Z,6.61
2019-03-12T12:39:00.489Z,6.63
2019-03-12T12:41:33.694Z,6.69
2019-03-12T12:44:05.363Z,6.69
2019-03-12T12:46:37.142Z,6.55
2019-03-12T12:49:08.818Z,6.46
2019-03-12T12:51:40.422Z,6.54
2019-03-12T12:54:12.088Z,6.41
2019-03-12T12:56:43.769Z,6.38
2019-03-12T12:59:15.366Z,6.57
2019-03-12T13:01:47.271Z,6.61
2019-03-12T13:04:19.142Z,6.74
2019-03-12T13:06:52.113Z,6.76
2019-03-12T13:09:24.033Z,6.69
2019-03-12T13:11:55.694Z,6.57
2019-03-12T13:14:27.363Z,6.82
2019-03-12T13:17:00.042Z,6.98
2019-03-12T13:19:31.821Z,7.10
2019-03-12T13:22:03.488Z,7.20
2019-03-12T13:24:35.176Z,7.33
2019-03-12T13:27:06.761Z,7.22
2019-03-12T13:29:38.514Z,7.25
2019-03-12T13:32:13.771Z,7.27
2019-03-12T13:34:43.608Z,7.30
2019-03-12T13:37:15.200Z,7.38
2019-03-12T13:39:46.879Z,7.26
2019-03-12T13:42:18.539Z,7.28
2019-03-12T13:44:50.380Z,7.24
2019-03-12T13:47:22.110Z,7.25
2019-03-12T13:49:54.062Z,7.29
2019-03-12T13:52:25.716Z,7.39
2019-03-12T13:54:58.442Z,7.53
2019-03-12T13:57:30.092Z,7.61
2019-03-12T14:00:01.938Z,7.58
2019-03-12T14:02:35.137Z,7.47
2019-03-12T14:05:07.080Z,7.46
2019-03-12T14:07:38.942Z,7.50
2019-03-12T14:10:12.481Z,7.39
2019-03-12T14:12:44.237Z,7.36
2019-03-12T14:15:19.172Z,7.22
2019-03-12T14:17:51.074Z,7.40
2019-03-12T14:20:42.906Z,7.46
2019-03-12T14:23:16.913Z,7.52
2019-03-12T14:25:49.143Z,7.56
2019-03-12T14:28:21.106Z,7.59
2019-03-12T14:30:52.771Z,7.62
2019-03-12T14:33:24.438Z,7.72
2019-03-12T14:35:56.108Z,7.80
2019-03-12T14:38:27.779Z,7.73
2019-03-12T14:40:59.447Z,7.70
2019-03-12T14:43:31.111Z,7.83
2019-03-12T14:46:02.757Z,7.91
2019-03-12T14:48:47.785Z,7.85
2019-03-12T14:51:58.253Z,7.81
2019-03-12T14:54:29.963Z,7.85
2019-03-12T14:57:18.030Z,7.89
2019-03-12T14:59:49.641Z,7.81
2019-03-12T15:02:21.745Z,7.77
2019-03-12T15:04:53.419Z,7.77
2019-03-12T15:07:25.096Z,7.81
2019-03-12T15:09:56.850Z,7.74
2019-03-12T15:12:28.513Z,7.80
2019-03-12T15:15:00.351Z,7.71
2019-03-12T15:17:32.057Z,7.91
2019-03-12T15:20:03.719Z,8.07
2019-03-12T15:22:35.391Z,8.01
2019-03-12T15:25:07.401Z,7.87
2019-03-12T15:27:39.083Z,7.83
2019-03-12T15:30:16.313Z,7.73
2019-03-12T15:32:48.006Z,7.56
2019-03-12T15:35:19.729Z,7.47
2019-03-12T15:37:51.322Z,7.46
2019-03-12T15:40:22.999Z,7.51
2019-03-12T15:42:54.790Z,7.34
2019-03-12T15:45:26.442Z,7.28
2019-03-12T15:47:58.072Z,7.39
2019-03-12T15:50:29.687Z,7.30
2019-03-12T15:53:01.381Z,7.30
2019-03-12T15:55:33.018Z,7.35
2019-03-12T15:58:04.717Z,7.52
2019-03-12T16:00:36.316Z,7.71
2019-03-12T16:03:08.028Z,7.80
2019-03-12T16:05:39.682Z,7.75
2019-03-12T16:08:11.382Z,7.70
2019-03-12T16:10:42.980Z,7.48
2019-03-12T16:13:14.682Z,7.23
2019-03-12T16:15:46.369Z,7.11
2019-03-12T16:18:18.474Z,6.99
2019-03-12T16:20:50.363Z,7.08
2019-03-12T16:23:22.285Z,7.21
2019-03-12T16:25:54.138Z,7.11
2019-03-12T16:28:26.837Z,6.99
2019-03-12T16:30:58.440Z,6.93
2019-03-12T16:33:30.117Z,6.85
2019-03-12T16:36:02.793Z,6.77
2019-03-12T16:38:34.431Z,6.75
2019-03-12T16:41:06.305Z,6.70
2019-03-12T16:43:38.011Z,6.63
2019-03-12T16:46:09.636Z,6.56
2019-03-12T16:48:41.248Z,6.53
2019-03-12T16:51:12.882Z,6.40
2019-03-12T16:53:44.505Z,6.34
2019-03-12T16:56:16.129Z,6.21
2019-03-12T16:58:48.057Z,6.08
2019-03-12T17:01:19.746Z,5.97
2019-03-12T17:03:51.421Z,5.97
2019-03-12T17:06:23.019Z,5.89
2019-03-12T17:08:54.640Z,5.89
2019-03-12T17:11:26.327Z,5.96
2019-03-12T17:13:58.033Z,5.79
2019-03-12T17:16:29.720Z,5.77
2019-03-12T17:19:01.331Z,5.69
2019-03-12T17:21:33.113Z,5.64
2019-03-12T17:24:04.801Z,5.58
2019-03-12T17:26:36.475Z,5.56
2019-03-12T17:29:08.105Z,5.53
2019-03-12T17:31:39.787Z,5.54
2019-03-12T17:34:11.402Z,5.48
2019-03-12T17:36:43.092Z,5.45
2019-03-12T17:39:14.718Z,5.45
2019-03-12T17:41:46.399Z,5.37
2019-03-12T17:44:18.297Z,5.36
2019-03-12T17:46:51.237Z,5.35
2019-03-12T17:49:22.919Z,5.33
2019-03-12T17:51:54.812Z,5.38
2019-03-12T17:54:26.881Z,5.36
2019-03-12T17:56:59.026Z,5.35
2019-03-12T17:59:31.007Z,5.27
2019-03-12T18:02:03.116Z,5.21
2019-03-12T18:04:35.176Z,5.26
2019-03-12T18:07:07.326Z,5.23
2019-03-12T18:09:41.147Z,5.19
2019-03-12T18:12:13.100Z,5.29
2019-03-12T18:14:44.909Z,5.21
2019-03-12T18:17:21.154Z,5.19
2019-03-12T18:19:51.772Z,5.20
2019-03-12T18:22:23.877Z,5.18
2019-03-12T18:24:56.003Z,5.11
2019-03-12T18:27:28.702Z,5.10
2019-03-12T18:30:00.758Z,4.98
2019-03-12T18:32:34.314Z,5.05
2019-03-12T18:35:06.421Z,4.93
2019-03-12T18:37:38.212Z,4.87
2019-03-12T18:40:17.453Z,4.90
2019-03-12T18:42:49.564Z,4.90
2019-03-12T18:45:22.458Z,4.85
2019-03-12T18:47:54.280Z,4.88
2019-03-12T18:50:26.135Z,4.89
2019-03-12T18:52:57.971Z,4.77
2019-03-12T18:56:01.914Z,4.79
2019-03-12T18:58:34.595Z,4.78
2019-03-12T19:01:11.583Z,4.82
2019-03-12T19:03:43.652Z,4.77
2019-03-12T19:06:16.714Z,4.74
2019-03-12T19:08:48.882Z,4.74
2019-03-12T19:11:20.947Z,4.82
2019-03-12T19:13:53.110Z,4.75
2019-03-12T19:16:25.033Z,4.73
2019-03-12T19:18:56.863Z,4.79
2019-03-12T19:21:30.222Z,4.76
2019-03-12T19:24:03.297Z,4.74
2019-03-12T19:26:35.658Z,4.77
2019-03-12T19:29:07.699Z,4.72
2019-03-12T19:31:47.098Z,4.77
2019-03-12T19:34:24.919Z,4.76
2019-03-12T19:37:19.346Z,4.79
2019-03-12T19:39:56.302Z,4.83
2019-03-12T19:42:27.955Z,4.77
2019-03-12T19:45:14.557Z,4.75
2019-03-12T19:47:47.043Z,4.82
2019-03-12T19:50:20.485Z,4.83
2019-03-12T19:52:52.915Z,4.87
2019-03-12T19:55:28.053Z,4.84
2019-03-12T19:58:02.598Z,4.91
2019-03-12T20:00:34.755Z,4.91
2019-03-12T20:03:13.401Z,4.93
2019-03-12T20:05:42.074Z,4.93
2019-03-12T20:08:14.022Z,4.99
2019-03-12T20:11:18.750Z,4.96
2019-03-12T20:14:16.622Z,4.95
2019-03-12T20:17:31.886Z,4.98
2019-03-12T20:20:58.382Z,4.99
2019-03-12T20:24:11.671Z,4.97
2019-03-12T20:27:20.140Z,4.97
2019-03-12T20:30:28.833Z,4.99
2019-03-12T20:33:51.685Z,4.99
2019-03-12T20:37:03.142Z,5.01
2019-03-12T20:40:23.708Z,4.96
2019-03-12T20:43:35.216Z,4.95
2019-03-12T20:47:01.791Z,4.91
2019-03-12T20:50:02.358Z,4.90
2019-03-12T20:53:16.608Z,4.86
2019-03-12T20:56:23.341Z,4.84
2019-03-12T20:59:51.050Z,4.78
2019-03-12T21:03:29.671Z,4.77
2019-03-12T21:06:31.823Z,4.73
2019-03-12T21:09:52.412Z,4.72
2019-03-12T21:13:07.912Z,4.72
2019-03-12T21:16:13.626Z,4.73
2019-03-12T21:19:21.129Z,4.75
2019-03-12T21:22:28.656Z,4.77
2019-03-12T21:25:35.419Z,4.69
2019-03-12T21:28:49.787Z,4.73
2019-03-12T21:31:21.466Z,4.67
2019-03-12T21:33:53.153Z,4.61
2019-03-12T21:36:24.771Z,4.66
2019-03-12T21:38:56.401Z,4.60
2019-03-12T21:41:28.081Z,4.61
2019-03-12T21:43:59.719Z,4.59
2019-03-12T21:46:31.312Z,4.62
2019-03-12T21:49:03.010Z,4.58
2019-03-12T21:51:34.605Z,4.60
2019-03-12T21:54:06.302Z,4.58
2019-03-12T21:56:37.963Z,4.62
2019-03-12T21:59:09.577Z,4.57
2019-03-12T22:01:41.256Z,4.59
2019-03-12T22:04:12.939Z,4.58
2019-03-12T22:06:44.602Z,4.57
2019-03-12T22:09:17.556Z,4.54
2019-03-12T22:11:49.406Z,4.57
2019-03-12T22:14:21.295Z,4.49
2019-03-12T22:16:56.091Z,4.55
2019-03-12T22:19:28.891Z,4.49
2019-03-12T22:22:09.013Z,4.52
2019-03-12T22:24:40.759Z,4.50
2019-03-12T22:27:12.435Z,4.47
2019-03-12T22:29:44.049Z,4.43
2019-03-12T22:32:15.640Z,4.49
2019-03-12T22:34:47.569Z,4.40
2019-03-12T22:37:19.400Z,4.40
2019-03-12T22:39:51.327Z,4.44
2019-03-12T22:42:22.949Z,4.51
2019-03-12T22:44:54.536Z,4.49
2019-03-12T22:47:26.112Z,4.56
2019-03-12T22:49:57.705Z,4.55
2019-03-12T22:52:29.358Z,4.56
2019-03-12T22:55:03.835Z,4.64
2019-03-12T22:57:34.405Z,4.56
2019-03-12T23:00:23.909Z,4.59
2019-03-12T23:03:13.318Z,4.59
2019-03-12T23:06:02.934Z,4.54
2019-03-12T23:08:52.467Z,4.59
2019-03-12T23:11:25.816Z,4.61
2019-03-12T23:13:58.232Z,4.56
2019-03-12T23:16:30.685Z,4.61
2019-03-12T23:19:02.412Z,4.63
2019-03-12T23:21:34.441Z,4.56
2019-03-12T23:24:06.168Z,4.57
2019-03-12T23:26:39.093Z,4.56
2019-03-12T23:29:10.918Z,4.52
2019-03-12T23:31:43.663Z,4.54
2019-03-12T23:34:15.387Z,4.59
2019-03-12T23:36:47.128Z,4.58
2019-03-12T23:39:18.854Z,4.53
2019-03-12T23:41:50.614Z,4.53
2019-03-12T23:44:22.432Z,4.53
2019-03-12T23:46:54.269Z,4.56
2019-03-12T23:49:25.993Z,4.57
2019-03-12T23:51:57.915Z,4.59
2019-03-12T23:54:30.171Z,4.63
2019-03-12T23:57:01.930Z,4.56
2019-03-12T23:59:33.660Z,4.55
